Latest Weather Observations for Christmas Island

IDW60801

Issued at 12:33 pm WST Thursday 30 June 2016 (issued every 30 minutes, with the page automatically refreshed every 10 minutes)

About weather observations | Map of weather stations | Latest weather observations for WA | Other Formats
Station Details ID: 200790 Name: CHRISTMAS ISLAND AERO Lat: -10.45 Lon: 105.69 Height: 261.0 m
Data from the previous 72 hours. | See also: Recent months at Christmas Island
Date/Time
WST
Temp
°C
App
Temp
°C
Dew
Point
°C
Rel
Hum
%
Delta-T
°C
Wind Press
QNH
hPa
Press
MSL
hPa
Rain since
9am
mm
Dir  Spd
km/h
Gust
km/h
Spd
kts
Gust
kts
30/12:30pm 25.0 28.6 24.3 96 0.5 E 13 19 7 10 1013.0 - 3.6
30/12:18pm 24.4 27.6 23.7 96 0.5 NE 13 19 7 10 1013.3 - 3.6
30/12:14pm 24.2 27.3 23.5 96 0.5 NE 13 20 7 11 1013.3 - 3.6
30/12:00pm 24.1 25.9 23.5 96 0.4 NE 20 28 11 15 1013.7 - 3.4
30/11:48am 24.5 26.7 23.9 96 0.4 ENE 19 30 10 16 1013.9 - 3.2
30/11:30am 25.2 28.0 24.3 95 0.6 ESE 17 30 9 16 1013.8 - 3.2
30/11:12am 24.8 27.1 24.1 96 0.5 E 19 30 10 16 1014.0 - 3.2
30/11:00am 24.5 26.1 23.9 96 0.4 SE 22 35 12 19 1014.1 - 2.8
30/10:52am 24.6 26.8 24.0 96 0.4 SE 19 35 10 19 1014.2 - 1.4
30/10:30am 24.4 26.4 24.0 98 0.3 SE 20 37 11 20 1014.1 - 0.4
30/10:14am 23.9 25.2 23.3 96 0.4 SE 22 30 12 16 1014.1 - 0.4
30/10:00am 23.6 25.1 23.0 96 0.4 SE 20 33 11 18 1014.2 1012.7 20.8
30/09:32am 24.7 25.2 24.0 96 0.5 SE 28 43 15 23 1014.0 - 18.6
30/09:30am 24.9 25.4 24.0 95 0.6 SE 28 41 15 22 1013.9 - 18.2
30/09:26am 24.9 25.8 24.0 95 0.6 SE 26 35 14 19 1013.9 - 18.0
30/09:00am 24.9 27.6 24.2 96 0.5 SE 17 32 9 17 1014.1 - 17.8
30/08:52am 25.0 26.5 24.3 96 0.5 SE 24 33 13 18 1014.1 - 17.8
30/08:30am 25.4 27.6 24.0 92 1.0 SE 19 28 10 15 1013.6 - 17.6
30/08:00am 25.3 27.2 23.7 91 1.1 SE 20 32 11 17 1013.5 - 17.6
30/07:30am 25.0 26.4 23.5 91 1.0 SE 22 32 12 17 1012.8 - 17.6
30/07:00am 25.0 26.6 23.8 93 0.8 SE 22 37 12 20 1012.8 1011.2 17.6
30/06:30am 25.0 26.2 23.2 90 1.2 SE 22 32 12 17 1012.2 - 17.6
30/06:26am 25.0 25.8 23.2 90 1.2 SE 24 35 13 19 1012.3 - 17.6
30/06:15am 25.0 25.4 23.1 89 1.3 SE 26 39 14 21 1012.3 - 17.6
30/06:00am 24.9 25.1 22.8 88 1.4 SE 26 37 14 20 1012.3 - 17.6
30/05:30am 25.0 25.8 23.1 89 1.3 SE 24 37 13 20 1012.7 - 17.6
30/05:00am 25.0 25.8 23.2 90 1.2 SE 24 33 13 18 1012.6 - 17.6
30/04:30am 25.0 25.8 23.1 89 1.3 SE 24 37 13 20 1012.5 - 17.6
30/04:00am 24.9 26.2 23.3 91 1.1 SE 22 33 12 18 1012.1 1010.5 17.6
30/03:30am 24.8 25.1 23.0 90 1.2 SE 26 39 14 21 1012.2 - 17.6
30/03:00am 24.7 25.1 23.2 91 1.0 SE 26 37 14 20 1012.4 - 17.6
30/02:30am 24.9 24.7 24.0 95 0.6 SE 32 44 17 24 1012.7 - 17.6
30/02:12am 25.2 26.0 24.5 96 0.5 ESE 28 46 15 25 1013.1 - 17.6
30/02:06am 25.3 25.7 24.4 95 0.6 ESE 30 41 16 22 1013.1 - 17.6
30/02:00am 25.5 26.6 24.4 94 0.8 SE 26 41 14 22 1013.1 - 17.6
30/01:30am 25.2 26.4 23.8 92 1.0 SE 24 33 13 18 1013.9 - 17.6
30/01:00am 24.9 26.1 23.9 94 0.7 SE 24 35 13 19 1014.3 1012.8 17.2
30/12:30am 24.7 27.4 24.1 96 0.4 SE 17 22 9 12 1014.5 - 17.2
30/12:19am 24.5 26.5 23.9 96 0.4 SE 20 30 11 16 1014.6 - 17.2
30/12:00am 24.0 24.9 23.3 96 0.5 SE 24 39 13 21 1014.7 - 17.0
 
Date/Time
WST
Temp
°C
App
Temp
°C
Dew
Point
°C
Rel
Hum
%
Delta-T
°C
Wind Press
QNH
hPa
Press
MSL
hPa
Rain since
9am
mm
Dir  Spd
km/h
Gust
km/h
Spd
kts
Gust
kts
29/11:58pm 24.1 25.4 23.4 96 0.5 SE 22 39 12 21 1014.7 - 15.6
29/11:39pm 24.5 26.6 23.8 96 0.5 SE 19 30 10 16 1014.8 - 14.6
29/11:38pm 24.5 26.6 23.8 96 0.5 SE 19 30 10 16 1014.8 - 14.6
29/11:30pm 24.1 25.8 23.4 96 0.5 SE 20 32 11 17 1014.8 - 14.6
29/11:00pm 24.8 27.1 24.1 96 0.5 SE 19 30 10 16 1014.9 - 14.6
29/10:53pm 24.4 26.1 23.4 94 0.7 SE 20 35 11 19 1015.0 - 14.6
29/10:45pm 24.0 25.4 22.8 93 0.8 SE 20 32 11 17 1015.1 - 14.6
29/10:30pm 24.3 25.4 23.6 96 0.5 SE 24 44 13 24 1015.2 - 14.6
29/10:00pm 24.9 26.7 24.3 96 0.4 SE 22 32 12 17 1015.2 1013.7 14.6
29/09:30pm 24.7 27.8 24.1 96 0.4 SSE 15 26 8 14 1014.9 - 14.4
29/09:00pm 24.2 27.1 23.8 98 0.3 SE 15 28 8 15 1014.6 - 14.4
29/08:42pm 24.5 26.7 24.2 98 0.2 SE 20 32 11 17 1014.4 - 14.4
29/08:30pm 24.4 26.6 24.0 98 0.3 SE 19 32 10 17 1014.4 - 14.4
29/08:20pm 24.6 27.3 24.2 98 0.3 SSE 17 28 9 15 1014.2 - 14.4
29/08:00pm 24.5 26.6 24.1 98 0.3 SE 20 30 11 16 1014.0 - 14.4
29/07:41pm 24.1 27.3 23.7 98 0.3 S 13 22 7 12 1013.8 - 14.4
29/07:30pm 23.9 25.2 23.3 96 0.4 SE 22 37 12 20 1013.6 - 14.4
29/07:22pm 24.2 26.0 23.6 96 0.4 SSE 20 37 11 20 1013.5 - 14.2
29/07:00pm 24.8 28.3 24.2 96 0.4 SSE 13 20 7 11 1013.4 1011.9 13.2
29/06:40pm 24.4 27.4 24.0 98 0.3 SSE 15 24 8 13 1013.3 - 13.2
29/06:30pm 24.5 27.2 24.1 98 0.3 SSE 17 24 9 13 1013.2 - 13.0
29/06:08pm 24.5 27.8 23.9 96 0.4 SE 13 19 7 10 1013.0 - 11.4
29/06:01pm 24.1 26.8 23.5 96 0.4 SE 15 22 8 12 1012.8 - 11.2
29/06:00pm 24.0 26.8 23.6 98 0.3 SE 15 22 8 12 1012.8 - 11.2
29/05:43pm 24.1 26.4 23.5 96 0.4 SE 17 22 9 12 1012.8 - 10.4
29/05:30pm 23.8 26.2 22.9 95 0.6 SE 15 22 8 12 1013.0 - 10.2
29/05:25pm 23.4 25.7 22.7 96 0.5 SE 15 19 8 10 1013.1 - 10.2
29/05:10pm 24.1 26.0 23.4 96 0.5 ESE 19 35 10 19 1013.0 - 9.8
29/05:00pm 24.6 27.0 23.7 95 0.6 SE 17 33 9 18 1012.8 - 9.6
29/04:30pm 25.0 27.3 24.1 95 0.6 SE 19 28 10 15 1012.5 - 9.6
29/04:01pm 24.5 26.4 23.8 96 0.5 SE 20 32 11 17 1012.4 - 8.6
29/04:00pm 24.5 26.4 23.8 96 0.5 SE 20 32 11 17 1012.4 1010.8 8.6
29/03:30pm 24.8 26.1 24.1 96 0.5 ESE 24 39 13 21 1012.1 - 8.4
29/03:19pm 25.2 28.4 24.3 95 0.6 SSE 15 26 8 14 1011.9 - 7.8
29/03:00pm 25.5 28.4 24.5 94 0.7 SE 17 32 9 17 1011.8 - 6.8
29/02:41pm 25.2 28.4 24.3 95 0.6 SE 15 22 8 12 1012.4 - 6.8
29/02:30pm 25.0 28.1 24.1 95 0.6 SSE 15 24 8 13 1012.7 - 6.8
29/02:00pm 25.0 29.4 24.4 96 0.4 SSE 9 17 5 9 1013.0 - 6.0
29/01:51pm 24.9 29.2 24.3 96 0.4 SSE 9 19 5 10 1013.2 - 6.0
29/01:30pm 24.7 28.5 24.1 96 0.4 SSE 11 17 6 9 1013.4 - 4.6
29/01:00pm 24.1 27.2 23.5 96 0.4 SSE 13 24 7 13 1013.6 1012.1 3.8
29/12:30pm 25.4 27.5 24.1 92 0.9 SE 20 30 11 16 1013.8 - 3.2
29/12:27pm 25.6 27.6 23.9 90 1.2 SE 20 30 11 16 1014.0 - 2.0
29/12:00pm 26.2 29.2 24.0 88 1.5 SE 15 22 8 12 1014.2 - 0.0
29/11:59am 26.3 29.4 24.1 88 1.5 SE 15 22 8 12 1014.2 - 0.0
29/11:30am 26.2 28.8 23.9 87 1.6 SE 17 32 9 17 1014.3 - 0.0
29/11:14am 26.5 28.9 23.6 84 2.0 SE 17 26 9 14 1014.4 - 0.0
29/11:06am 26.8 28.6 23.5 82 2.3 SE 20 32 11 17 1014.4 - 0.0
29/11:00am 27.1 28.4 23.3 80 2.6 SE 22 32 12 17 1014.4 - 0.0
29/10:30am 26.9 29.5 24.0 84 2.0 SE 17 26 9 14 1014.4 - 0.0
29/10:11am 26.1 28.4 23.5 85 1.8 SE 17 26 9 14 1014.6 - 0.0
29/10:06am 26.4 28.7 23.5 84 2.0 SE 17 24 9 13 1014.6 - 0.0
29/10:00am 26.5 28.5 23.6 84 2.0 SE 19 32 10 17 1014.6 1013.1 10.4
29/09:30am 26.6 28.5 23.7 84 2.0 SE 20 32 11 17 1014.7 - 10.4
29/09:20am 26.2 28.2 23.6 85 1.8 SE 19 28 10 15 1014.5 - 10.4
29/09:00am 25.8 27.4 23.2 85 1.8 SE 20 30 11 16 1014.4 - 10.4
29/08:51am 25.8 27.6 23.2 85 1.8 SE 19 30 10 16 1014.3 - 10.4
29/08:41am 25.7 27.5 23.2 86 1.7 SE 19 26 10 14 1014.2 - 10.4
29/08:39am 25.8 27.6 23.2 85 1.8 SE 19 26 10 14 1014.2 - 10.4
29/08:30am 25.6 27.2 23.3 87 1.6 SE 20 28 11 15 1014.1 - 10.4
29/08:04am 25.4 27.1 23.1 87 1.6 SE 19 26 10 14 1013.6 - 10.4
29/08:00am 25.4 27.0 22.9 86 1.7 SE 19 26 10 14 1013.5 - 10.4
29/07:30am 25.0 26.9 22.8 87 1.5 SSE 17 30 9 16 1013.0 - 10.4
29/07:00am 25.1 26.5 22.9 87 1.5 SE 20 32 11 17 1012.8 1011.2 10.4
29/06:30am 25.2 26.1 22.7 86 1.7 SE 22 32 12 17 1012.5 - 10.4
29/06:00am 24.8 26.1 22.4 86 1.6 SE 19 26 10 14 1012.6 - 10.4
29/05:30am 24.7 25.7 21.7 83 2.0 SE 19 28 10 15 1012.5 - 10.4
29/05:00am 24.7 26.1 22.5 87 1.5 SE 19 28 10 15 1012.6 - 10.4
29/04:30am 24.7 25.7 22.8 89 1.3 SE 22 30 12 16 1012.9 - 10.4
29/04:00am 24.3 26.3 23.0 92 0.9 SE 17 26 9 14 1013.2 1011.7 10.4
29/03:48am 24.2 26.4 23.2 94 0.7 SE 17 24 9 13 1013.3 - 10.4
29/03:45am 24.2 26.4 23.2 94 0.7 SE 17 24 9 13 1013.3 - 10.4
29/03:30am 23.8 26.2 22.9 95 0.6 ESE 15 20 8 11 1013.5 - 10.2
29/03:14am 24.2 25.0 23.2 94 0.7 ESE 24 46 13 25 1013.6 - 1.8
29/03:00am 25.2 28.1 23.2 89 1.4 SE 13 24 7 13 1013.7 - 0.0
29/02:30am 25.3 26.9 23.3 89 1.4 SE 20 30 11 16 1014.0 - 0.0
29/02:00am 25.4 27.6 23.2 88 1.5 SE 17 28 9 15 1013.9 - 0.0
29/01:39am 25.4 27.5 23.1 87 1.6 SE 17 26 9 14 1014.1 - 0.0
29/01:30am 25.4 27.6 23.2 88 1.5 SE 17 26 9 14 1014.1 - 0.0
29/01:19am 25.5 28.0 23.2 87 1.6 SE 15 26 8 14 1014.2 - 0.0
29/01:00am 25.5 27.9 22.9 85 1.8 SSE 15 26 8 14 1014.2 1012.7 0.0
29/12:35am 25.3 27.2 22.7 85 1.8 SE 17 24 9 13 1014.3 - 0.0
29/12:30am 25.4 27.7 22.8 85 1.8 SE 15 24 8 13 1014.3 - 0.0
29/12:27am 25.5 27.4 22.7 84 1.9 SE 17 26 9 14 1014.4 - 0.0
29/12:00am 25.5 26.9 22.9 85 1.8 SE 20 32 11 17 1014.3 - 0.0
 
Date/Time
WST
Temp
°C
App
Temp
°C
Dew
Point
°C
Rel
Hum
%
Delta-T
°C
Wind Press
QNH
hPa
Press
MSL
hPa
Rain since
9am
mm
Dir  Spd
km/h
Gust
km/h
Spd
kts
Gust
kts
28/11:30pm 25.4 27.2 22.6 84 1.9 SE 17 30 9 16 1014.5 - 0.0
28/11:00pm 25.4 27.2 22.6 84 1.9 SE 17 24 9 13 1014.8 - 0.0
28/10:30pm 25.5 27.0 22.7 84 1.9 SE 19 26 10 14 1014.8 - 0.0
28/10:26pm 25.5 27.0 22.7 84 1.9 SE 19 26 10 14 1014.8 - 0.0
28/10:17pm 25.5 27.4 22.7 84 1.9 SE 17 30 9 16 1014.6 - 0.0
28/10:00pm 25.5 26.8 22.6 84 2.0 SE 20 32 11 17 1014.6 1013.1 0.0
28/09:36pm 25.5 26.8 22.6 84 2.0 SE 20 32 11 17 1014.5 - 0.0
28/09:30pm 25.5 26.2 22.2 82 2.2 SE 22 32 12 17 1014.4 - 0.0
28/09:04pm 25.5 26.6 22.4 83 2.1 SE 20 33 11 18 1014.1 - 0.0
28/09:00pm 25.5 26.5 22.2 82 2.2 SE 20 32 11 17 1014.0 - 0.0
28/08:53pm 25.5 26.4 22.6 84 2.0 SE 22 33 12 18 1014.0 - 0.0
28/08:30pm 25.5 26.5 22.2 82 2.2 SE 20 32 11 17 1013.7 - 0.0
28/08:00pm 25.5 26.5 22.2 82 2.2 SE 20 33 11 18 1013.4 - 0.0
28/07:30pm 25.4 26.5 22.3 83 2.1 SE 20 30 11 16 1013.1 - 0.0
28/07:00pm 25.3 26.5 22.2 83 2.1 SE 19 28 10 15 1013.0 1011.5 0.0
28/06:30pm 25.5 26.7 22.2 82 2.2 SE 19 32 10 17 1012.7 - 0.0
28/06:00pm 25.6 26.5 22.0 80 2.4 SE 20 32 11 17 1012.6 - 0.0
28/05:30pm 25.9 26.9 22.2 80 2.5 SE 20 32 11 17 1012.5 - 0.0
28/05:00pm 26.3 27.5 22.5 79 2.6 SE 20 32 11 17 1012.3 - 0.0
28/04:30pm 26.1 26.8 22.3 79 2.6 SE 22 30 12 16 1012.1 - 0.0
28/04:00pm 26.1 26.7 22.1 78 2.7 SE 22 32 12 17 1011.9 1010.4 0.0
28/03:30pm 26.3 26.8 22.0 77 2.9 SE 22 33 12 18 1011.7 - 0.0
28/03:00pm 26.6 27.3 22.3 77 2.9 SE 22 30 12 16 1011.9 - 0.0
28/02:30pm 26.7 27.3 22.1 76 3.1 SE 22 33 12 18 1012.2 - 0.0
28/02:00pm 26.8 27.5 22.2 76 3.1 SE 22 32 12 17 1012.4 - 0.0
28/01:30pm 26.8 26.9 21.8 74 3.4 SE 24 35 13 19 1012.6 - 0.0
28/01:00pm 26.7 26.8 21.8 74 3.3 ESE 24 35 13 19 1013.0 1011.5 0.0
28/12:30pm 26.8 26.9 21.8 74 3.4 SE 24 33 13 18 1013.2 - 0.0
28/12:00pm 26.8 27.3 21.9 74 3.3 SE 22 35 12 19 1013.7 - 0.0
28/11:30am 26.8 27.1 21.6 73 3.5 SE 22 35 12 19 1014.0 - 0.0
28/11:00am 26.3 25.8 21.5 75 3.2 SE 26 37 14 20 1014.1 - 0.0
28/10:30am 26.6 27.0 21.7 74 3.3 SE 22 32 12 17 1014.1 - 0.0
28/10:00am 26.2 27.0 21.7 76 3.0 SE 20 30 11 16 1014.2 1012.7 4.4
28/09:30am 26.4 26.7 21.6 75 3.2 SE 22 32 12 17 1014.1 - 4.4
28/09:00am 26.0 26.8 21.7 77 2.9 SE 20 33 11 18 1014.0 - 4.4
28/08:30am 25.9 26.7 21.7 77 2.8 SE 20 28 11 15 1013.6 - 4.4
28/08:00am 25.3 26.1 21.4 79 2.6 SE 19 30 10 16 1013.3 - 4.4
28/07:30am 25.0 26.4 21.9 83 2.1 SE 17 28 9 15 1012.9 - 4.4
28/07:00am 24.9 25.9 21.8 83 2.1 SE 19 24 10 13 1012.7 1011.1 4.4
28/06:30am 25.0 26.1 21.9 83 2.1 SE 19 26 10 14 1012.8 - 4.4
28/06:00am 25.0 26.6 22.2 84 1.9 SE 17 26 9 14 1012.7 - 4.4
28/05:30am 25.1 26.9 21.8 82 2.2 SE 15 24 8 13 1012.6 - 4.4
28/05:00am 25.0 26.8 22.5 86 1.7 SE 17 26 9 14 1012.4 - 4.4
28/04:30am 25.2 26.9 22.4 84 1.9 SE 17 24 9 13 1012.3 - 4.4
28/04:00am 25.2 27.0 22.5 85 1.8 SE 17 26 9 14 1012.3 1010.7 4.4
28/03:56am 25.1 26.8 22.3 84 1.9 SE 17 24 9 13 1012.4 - 4.4
28/03:30am 25.3 27.2 22.7 85 1.8 SE 17 26 9 14 1012.5 - 4.4
28/03:00am 25.3 27.2 22.7 85 1.8 SE 17 22 9 12 1012.6 - 4.4
28/02:30am 25.3 27.4 23.1 87 1.5 SE 17 24 9 13 1012.7 - 4.4
28/02:01am 25.3 27.0 23.0 87 1.6 SE 19 26 10 14 1012.9 - 4.4
28/02:00am 25.3 27.0 23.0 87 1.6 SE 19 26 10 14 1013.0 - 4.4
28/01:55am 25.2 26.8 22.9 87 1.6 SE 19 24 10 13 1013.0 - 4.4
28/01:30am 25.2 27.2 23.0 87 1.5 SE 17 24 9 13 1013.3 - 4.4
28/01:00am 25.3 27.3 23.0 87 1.6 SE 17 24 9 13 1013.7 1012.2 4.4
28/12:30am 25.3 27.6 22.8 86 1.7 SE 15 20 8 11 1014.0 - 4.4
28/12:00am 25.4 27.8 22.9 86 1.7 SE 15 20 8 11 1014.1 - 4.4
 
Date/Time
WST
Temp
°C
App
Temp
°C
Dew
Point
°C
Rel
Hum
%
Delta-T
°C
Wind Press
QNH
hPa
Press
MSL
hPa
Rain since
9am
mm
Dir  Spd
km/h
Gust
km/h
Spd
kts
Gust
kts
27/11:58pm 25.4 28.3 23.1 87 1.6 SE 13 20 7 11 1014.1 - 4.4
27/11:55pm 25.5 28.4 23.2 87 1.6 ESE 13 20 7 11 1014.1 - 4.4
27/11:41pm 25.4 28.3 23.1 87 1.6 ESE 13 20 7 11 1014.1 - 4.4
27/11:30pm 25.3 28.1 23.0 87 1.6 ESE 13 24 7 13 1014.0 - 4.4
27/11:00pm 25.4 28.3 23.1 87 1.6 ESE 13 19 7 10 1014.1 - 4.4
27/10:58pm 25.4 28.3 23.1 87 1.6 ESE 13 19 7 10 1014.1 - 4.4
27/10:30pm 25.5 28.3 23.0 86 1.7 ESE 13 20 7 11 1014.2 - 4.4
27/10:12pm 25.6 28.2 23.3 87 1.6 ESE 15 19 8 10 1014.2 - 4.4
27/10:00pm 25.6 28.1 23.1 86 1.7 ESE 15 22 8 12 1014.1 1012.6 4.4
27/09:30pm 25.3 28.5 23.0 87 1.6 SE 11 17 6 9 1014.1 - 4.4
27/09:00pm 25.4 28.1 22.8 85 1.8 ESE 13 19 7 10 1013.9 - 4.4
27/08:30pm 25.5 28.1 22.6 84 2.0 ESE 13 19 7 10 1013.7 - 4.4
27/08:00pm 25.4 28.5 22.9 86 1.7 SE 11 17 6 9 1013.5 - 4.4
27/07:30pm 25.5 28.1 22.7 84 1.9 ESE 13 19 7 10 1013.1 - 4.4
27/07:00pm 25.4 28.9 22.9 86 1.7 E 9 17 5 9 1012.8 1011.2 4.4
27/06:30pm 25.5 29.0 22.9 85 1.8 SE 9 15 5 8 1012.6 - 4.4
27/06:00pm 25.8 28.5 22.9 84 2.0 ESE 13 19 7 10 1012.4 - 4.4
27/05:42pm 25.8 28.9 22.9 84 2.0 ESE 11 19 6 10 1012.2 - 4.4
27/05:30pm 25.9 28.8 23.1 84 1.9 ESE 13 19 7 10 1012.3 - 4.4
27/05:02pm 26.3 30.6 23.7 85 1.8 SE 7 13 4 7 1012.3 - 4.4
27/05:00pm 26.2 30.4 23.4 84 1.9 SE 7 13 4 7 1012.2 - 4.4
27/04:30pm 26.3 29.5 23.1 82 2.2 ESE 11 15 6 8 1011.9 - 4.4
27/04:00pm 26.4 29.6 23.0 81 2.3 ESE 11 15 6 8 1011.8 1010.3 4.4
27/03:30pm 26.0 30.0 23.8 88 1.5 SE 9 17 5 9 1012.1 - 4.4
27/03:00pm 24.6 28.5 23.0 91 1.1 SE 7 9 4 5 1012.3 - 4.4
27/02:38pm 24.1 28.2 22.9 93 0.8 ESE 6 9 3 5 1012.5 - 4.4
27/02:30pm 23.9 27.0 22.9 94 0.7 ESE 11 19 6 10 1012.6 - 4.4
27/02:24pm 24.2 26.7 23.2 94 0.7 ESE 15 26 8 14 1012.7 - 4.4
27/02:17pm 25.1 27.4 23.5 91 1.1 SE 17 24 9 13 1012.7 - 3.2
27/02:00pm 25.4 28.7 23.2 88 1.5 SSE 11 17 6 9 1012.8 - 1.4

Other Formats:

Comma delimited format used in spreadsheet applications
http://www.bom.gov.au/fwo/IDW60801/IDW60801.96995.axf

JavaScript Object Notation format (JSON) in row-major order
http://www.bom.gov.au/fwo/IDW60801/IDW60801.96995.json